createdAt,value
2024-04-24T00:01:47.486Z,28.73
2024-04-24T00:04:34.339Z,73.10
2024-04-24T00:07:20.972Z,26.08
2024-04-24T00:10:07.616Z,11.35
2024-04-24T00:12:54.349Z,32.45
2024-04-24T00:15:42.341Z,27.45
2024-04-24T00:18:28.788Z,8.93
2024-04-24T00:21:15.192Z,8.50
2024-04-24T00:24:01.849Z,7.90
2024-04-24T00:26:48.302Z,5.30
2024-04-24T00:29:34.733Z,5.53
2024-04-24T00:32:21.343Z,4.13
2024-04-24T00:35:26.972Z,7.05
2024-04-24T00:38:13.280Z,7.32
2024-04-24T00:41:18.234Z,3.15
2024-04-24T00:44:05.440Z,3.75
2024-04-24T00:46:52.446Z,6.15
2024-04-24T00:49:38.925Z,2.90
2024-04-24T00:52:25.658Z,3.58
2024-04-24T00:55:12.483Z,1.73
2024-04-24T00:57:58.883Z,4.55
2024-04-24T01:00:46.182Z,2.75
2024-04-24T01:03:33.074Z,4.30
2024-04-24T01:06:19.539Z,8.07
2024-04-24T01:09:24.642Z,1.35
2024-04-24T01:12:11.360Z,3.28
2024-04-24T01:14:57.673Z,3.60
2024-04-24T01:17:45.735Z,3.63
2024-04-24T01:20:32.819Z,0.77
2024-04-24T01:23:28.721Z,1.45
2024-04-24T01:26:17.902Z,2.75
2024-04-24T01:29:04.540Z,2.28
2024-04-24T01:31:50.945Z,2.25
2024-04-24T01:34:37.295Z,2.00
2024-04-24T01:37:24.005Z,0.88
2024-04-24T01:40:29.167Z,0.93
2024-04-24T01:43:15.704Z,2.38
2024-04-24T01:46:02.779Z,1.27
2024-04-24T01:48:49.342Z,1.77
2024-04-24T01:51:35.573Z,2.42
2024-04-24T01:54:22.074Z,1.00
2024-04-24T01:57:08.632Z,1.42
2024-04-24T01:59:55.010Z,0.70
2024-04-24T02:02:41.487Z,3.45
2024-04-24T02:05:28.008Z,1.95
2024-04-24T02:08:14.360Z,3.20
2024-04-24T02:11:01.033Z,3.00
2024-04-24T02:14:06.085Z,2.90
2024-04-24T02:16:52.394Z,1.20
2024-04-24T02:19:39.366Z,1.95
2024-04-24T02:22:26.176Z,2.03
2024-04-24T02:25:31.380Z,3.15
2024-04-24T02:28:17.929Z,2.05
2024-04-24T02:31:04.489Z,1.58
2024-04-24T02:33:50.999Z,0.95
2024-04-24T02:36:37.215Z,2.65
2024-04-24T02:39:23.754Z,1.08
2024-04-24T02:42:10.386Z,2.15
2024-04-24T02:44:57.296Z,2.85
2024-04-24T02:47:44.036Z,3.50
2024-04-24T02:50:30.962Z,1.52
2024-04-24T02:53:17.105Z,1.15
2024-04-24T02:56:03.831Z,3.33
2024-04-24T02:58:50.174Z,2.28
2024-04-24T03:01:36.766Z,6.18
2024-04-24T03:04:42.324Z,2.60
2024-04-24T03:07:28.734Z,1.80
2024-04-24T03:10:15.187Z,1.98
2024-04-24T03:13:02.075Z,2.47
2024-04-24T03:15:48.985Z,1.55
2024-04-24T03:18:35.346Z,1.38
2024-04-24T03:21:22.518Z,1.15
2024-04-24T03:24:09.100Z,0.93
2024-04-24T03:26:55.650Z,1.77
2024-04-24T03:30:00.729Z,1.25
2024-04-24T03:32:47.492Z,0.60
2024-04-24T03:35:34.187Z,1.45
2024-04-24T03:38:20.865Z,0.55
2024-04-24T03:41:07.661Z,0.70
2024-04-24T03:43:54.537Z,3.08
2024-04-24T03:46:42.695Z,1.77
2024-04-24T03:49:29.586Z,0.98
2024-04-24T03:52:16.198Z,1.05
2024-04-24T03:55:02.532Z,2.25
2024-04-24T03:57:49.815Z,1.20
2024-04-24T04:00:37.603Z,0.93
2024-04-24T04:03:24.554Z,1.27
2024-04-24T04:06:11.020Z,1.85
2024-04-24T04:08:57.664Z,0.70
2024-04-24T04:11:44.034Z,1.40
2024-04-24T04:14:31.000Z,0.88
2024-04-24T04:17:17.599Z,1.55
2024-04-24T04:20:06.856Z,2.35
2024-04-24T04:22:57.327Z,1.77
2024-04-24T04:25:43.720Z,1.73
2024-04-24T04:28:31.854Z,1.95
2024-04-24T04:31:18.330Z,3.15
2024-04-24T04:34:04.954Z,1.25
2024-04-24T04:36:51.564Z,2.40
2024-04-24T04:39:38.319Z,1.15
2024-04-24T04:42:26.528Z,2.25
2024-04-24T04:45:15.963Z,1.65
2024-04-24T04:48:04.148Z,0.95
2024-04-24T04:50:53.174Z,0.95
2024-04-24T04:53:39.452Z,1.25
2024-04-24T04:56:27.627Z,0.73
2024-04-24T04:59:14.184Z,1.40
2024-04-24T05:02:00.581Z,2.88
2024-04-24T05:04:47.592Z,0.98
2024-04-24T05:07:34.377Z,2.28
2024-04-24T05:10:20.881Z,3.88
2024-04-24T05:13:11.404Z,3.13
2024-04-24T05:15:57.994Z,0.93
2024-04-24T05:18:44.706Z,2.13
2024-04-24T05:21:31.243Z,2.65
2024-04-24T05:24:21.403Z,3.38
2024-04-24T05:27:26.911Z,2.17
2024-04-24T05:30:32.196Z,1.42
2024-04-24T05:33:18.671Z,2.63
2024-04-24T05:36:05.239Z,6.05
2024-04-24T05:38:51.782Z,3.05
2024-04-24T05:41:38.423Z,3.85
2024-04-24T05:44:25.593Z,6.65
2024-04-24T05:47:12.410Z,4.20
2024-04-24T05:49:59.013Z,6.13
2024-04-24T05:52:45.359Z,1.70
2024-04-24T05:55:31.845Z,7.05
2024-04-24T05:58:19.295Z,5.63
2024-04-24T06:01:05.878Z,3.90
2024-04-24T06:03:52.388Z,4.53
2024-04-24T06:06:38.883Z,4.75
2024-04-24T06:09:25.428Z,5.57
2024-04-24T06:12:11.875Z,6.82
2024-04-24T06:14:58.227Z,4.35
2024-04-24T06:17:44.768Z,5.07
2024-04-24T06:20:31.698Z,8.07
2024-04-24T06:23:18.144Z,6.32
2024-04-24T06:26:04.634Z,3.90
2024-04-24T06:28:51.262Z,5.70
2024-04-24T06:31:37.873Z,3.40
2024-04-24T06:34:24.386Z,4.35
2024-04-24T06:37:11.054Z,5.07
2024-04-24T06:39:57.648Z,3.28
2024-04-24T06:42:43.981Z,7.32
2024-04-24T06:45:30.598Z,4.22
2024-04-24T06:48:17.156Z,8.00
2024-04-24T06:51:04.223Z,3.90
2024-04-24T06:53:50.975Z,5.32
2024-04-24T06:56:38.313Z,4.93
2024-04-24T06:59:43.257Z,6.47
2024-04-24T07:02:29.711Z,4.95
2024-04-24T07:05:16.277Z,4.43
2024-04-24T07:08:03.190Z,5.60
2024-04-24T07:10:49.676Z,3.85
2024-04-24T07:13:36.171Z,0.95
2024-04-24T07:16:23.109Z,2.28
2024-04-24T07:19:14.246Z,4.75
2024-04-24T07:22:01.516Z,4.22
2024-04-24T07:24:48.668Z,11.50
2024-04-24T07:27:35.246Z,4.63
2024-04-24T07:30:27.381Z,3.30
2024-04-24T07:33:20.384Z,4.57
2024-04-24T07:36:08.563Z,4.00
2024-04-24T07:38:55.695Z,2.40
2024-04-24T07:41:43.700Z,3.33
2024-04-24T07:44:49.105Z,2.15
2024-04-24T07:47:35.633Z,1.98
2024-04-24T07:50:22.643Z,1.73
2024-04-24T07:53:12.281Z,1.83
2024-04-24T07:55:59.718Z,1.30
2024-04-24T07:58:47.834Z,1.80
2024-04-24T08:01:34.545Z,1.70
2024-04-24T08:04:21.269Z,1.75
2024-04-24T08:07:07.671Z,3.45
2024-04-24T08:09:54.227Z,1.98
2024-04-24T08:12:40.870Z,4.60
2024-04-24T08:15:27.449Z,4.70
2024-04-24T08:18:14.233Z,10.35
2024-04-24T08:21:01.063Z,8.77
2024-04-24T08:24:06.269Z,3.03
2024-04-24T08:26:52.699Z,1.08
2024-04-24T08:29:57.587Z,1.45
2024-04-24T08:32:44.477Z,1.88
2024-04-24T08:35:30.920Z,1.98
2024-04-24T08:38:17.530Z,1.98
2024-04-24T08:41:23.336Z,1.33
2024-04-24T08:44:13.898Z,1.60
2024-04-24T08:47:01.936Z,1.52
2024-04-24T08:49:49.433Z,1.83
2024-04-24T08:52:37.633Z,1.65
2024-04-24T08:55:45.028Z,2.00
2024-04-24T08:58:34.349Z,1.20
2024-04-24T09:01:25.358Z,1.23
2024-04-24T09:04:14.520Z,1.35
2024-04-24T09:07:01.979Z,1.90
2024-04-24T09:09:48.527Z,1.77
2024-04-24T09:12:36.828Z,1.67
2024-04-24T09:15:25.175Z,1.73
2024-04-24T09:18:11.743Z,2.22
2024-04-24T09:21:00.471Z,1.40
2024-04-24T09:23:47.398Z,1.60
2024-04-24T09:26:33.942Z,1.75
2024-04-24T09:29:20.490Z,1.63
2024-04-24T09:32:09.228Z,1.33
2024-04-24T09:34:56.001Z,1.40
2024-04-24T09:37:42.886Z,1.85
2024-04-24T09:40:29.980Z,1.65
2024-04-24T09:43:18.824Z,1.67
2024-04-24T09:46:07.121Z,2.03
2024-04-24T09:48:53.997Z,1.80
2024-04-24T09:51:43.840Z,1.70
2024-04-24T09:54:30.947Z,1.95
2024-04-24T09:57:22.297Z,1.33
2024-04-24T10:00:10.082Z,1.60
2024-04-24T10:03:04.102Z,1.40
2024-04-24T10:05:57.162Z,1.23
2024-04-24T10:08:45.430Z,1.60
2024-04-24T10:11:39.013Z,1.77
2024-04-24T10:14:26.575Z,1.23
2024-04-24T10:17:13.901Z,1.60
2024-04-24T10:20:08.426Z,1.70
2024-04-24T10:23:06.367Z,2.55
2024-04-24T10:25:54.629Z,1.50
2024-04-24T10:28:50.013Z,0.88
2024-04-24T10:31:37.187Z,1.35
2024-04-24T10:34:25.385Z,1.00
2024-04-24T10:37:11.950Z,1.70
2024-04-24T10:40:04.308Z,14.68
2024-04-24T10:42:53.692Z,3.45
2024-04-24T10:45:42.560Z,1.40
2024-04-24T10:48:53.644Z,0.90
2024-04-24T10:51:46.564Z,1.02
2024-04-24T10:54:33.718Z,1.23
2024-04-24T10:57:33.004Z,1.27
2024-04-24T11:00:20.324Z,0.60
2024-04-24T11:03:07.289Z,1.00
2024-04-24T11:05:53.933Z,0.90
2024-04-24T11:08:44.269Z,0.80
2024-04-24T11:11:31.303Z,2.17
2024-04-24T11:14:18.350Z,1.75
2024-04-24T11:17:05.521Z,1.60
2024-04-24T11:20:13.177Z,1.23
2024-04-24T11:23:06.962Z,0.90
2024-04-24T11:25:59.438Z,1.80
2024-04-24T11:28:46.986Z,1.00
2024-04-24T11:31:36.879Z,1.08
2024-04-24T11:34:23.423Z,0.90
2024-04-24T11:37:10.185Z,0.95
2024-04-24T11:39:56.899Z,1.92
2024-04-24T11:42:46.425Z,2.33
2024-04-24T11:45:32.862Z,2.53
2024-04-24T11:48:25.279Z,2.72
2024-04-24T11:51:13.926Z,1.50
2024-04-24T11:54:03.350Z,3.45
2024-04-24T11:56:51.974Z,2.35
2024-04-24T11:59:43.071Z,2.38
2024-04-24T12:02:32.077Z,2.10
2024-04-24T12:05:19.118Z,1.98
2024-04-24T12:08:05.941Z,1.27
2024-04-24T12:10:59.913Z,1.40
2024-04-24T12:13:46.880Z,1.27
2024-04-24T12:16:34.665Z,2.13
2024-04-24T12:19:21.205Z,1.15
2024-04-24T12:22:07.904Z,1.02
2024-04-24T12:24:54.386Z,6.18
2024-04-24T12:27:40.952Z,1.63
2024-04-24T12:30:28.246Z,0.90
2024-04-24T12:33:15.010Z,3.20
2024-04-24T12:36:02.079Z,1.48
2024-04-24T12:38:50.377Z,1.05
2024-04-24T12:41:37.310Z,1.23
2024-04-24T12:44:23.987Z,0.73
2024-04-24T12:47:12.198Z,1.65
2024-04-24T12:49:58.775Z,1.25
2024-04-24T12:52:45.338Z,1.13
2024-04-24T12:55:32.238Z,1.30
2024-04-24T12:58:18.868Z,1.02
2024-04-24T13:01:05.641Z,0.93
2024-04-24T13:03:53.076Z,1.60
2024-04-24T13:06:40.834Z,0.95
2024-04-24T13:09:27.369Z,7.05
2024-04-24T13:12:14.028Z,1.67
2024-04-24T13:15:00.462Z,1.00
2024-04-24T13:17:47.116Z,1.15
2024-04-24T13:20:34.270Z,0.85
2024-04-24T13:23:21.769Z,0.70
2024-04-24T13:26:08.361Z,1.33
2024-04-24T13:28:54.727Z,1.67
2024-04-24T13:31:41.390Z,1.48
2024-04-24T13:34:28.140Z,1.73
2024-04-24T13:37:14.902Z,1.45
2024-04-24T13:40:06.668Z,1.33
2024-04-24T13:42:56.251Z,0.90
2024-04-24T13:45:42.832Z,1.25
2024-04-24T13:48:32.720Z,1.00
2024-04-24T13:51:21.222Z,1.73
2024-04-24T13:54:08.438Z,1.75
2024-04-24T13:56:57.151Z,0.93
2024-04-24T13:59:43.788Z,1.10
2024-04-24T14:02:31.514Z,1.00
2024-04-24T14:05:18.696Z,1.10
2024-04-24T14:08:06.347Z,1.77
2024-04-24T14:10:53.394Z,1.27
2024-04-24T14:13:40.225Z,1.50
2024-04-24T14:16:27.134Z,1.70
2024-04-24T14:19:13.802Z,3.03
2024-04-24T14:22:00.520Z,3.47
2024-04-24T14:24:47.414Z,2.90
2024-04-24T14:27:37.025Z,1.33
2024-04-24T14:30:27.823Z,3.63
2024-04-24T14:33:14.359Z,1.20
2024-04-24T14:36:00.893Z,1.52
2024-04-24T14:38:52.511Z,0.95
2024-04-24T14:41:38.958Z,0.75
2024-04-24T14:44:25.959Z,1.00
2024-04-24T14:47:12.505Z,1.17
2024-04-24T14:49:59.557Z,1.92
2024-04-24T14:52:46.605Z,0.93
2024-04-24T14:55:33.753Z,1.27
2024-04-24T14:58:20.517Z,1.65
2024-04-24T15:01:25.383Z,1.35
2024-04-24T15:04:12.481Z,0.75
2024-04-24T15:07:03.264Z,1.00
2024-04-24T15:09:50.095Z,1.13
2024-04-24T15:12:36.586Z,0.85
2024-04-24T15:15:44.832Z,1.08
2024-04-24T15:18:34.885Z,1.48
2024-04-24T15:21:23.838Z,1.33
2024-04-24T15:24:10.465Z,0.95
2024-04-24T15:26:56.908Z,1.80
2024-04-24T15:30:02.004Z,2.13
2024-04-24T15:32:50.729Z,1.52
2024-04-24T15:35:37.988Z,1.50
2024-04-24T15:38:25.821Z,1.33
2024-04-24T15:41:30.899Z,0.63
2024-04-24T15:44:17.948Z,1.60
2024-04-24T15:47:04.831Z,1.40
2024-04-24T15:49:54.139Z,1.45
2024-04-24T15:52:50.454Z,1.23
2024-04-24T15:55:36.926Z,0.82
2024-04-24T15:58:23.816Z,1.45
2024-04-24T16:01:10.826Z,1.80
2024-04-24T16:03:57.821Z,1.02
2024-04-24T16:06:45.488Z,2.63
2024-04-24T16:09:33.316Z,1.80
2024-04-24T16:12:19.864Z,1.15
2024-04-24T16:15:06.682Z,0.85
2024-04-24T16:17:53.558Z,1.00
2024-04-24T16:20:40.857Z,1.48
2024-04-24T16:23:28.375Z,2.67
2024-04-24T16:26:16.179Z,1.50
2024-04-24T16:29:22.690Z,1.60
2024-04-24T16:32:09.548Z,2.08
2024-04-24T16:34:56.070Z,2.03
2024-04-24T16:37:44.193Z,1.60
2024-04-24T16:40:49.488Z,1.80
2024-04-24T16:43:36.680Z,2.78
2024-04-24T16:46:23.025Z,7.32
2024-04-24T16:49:30.865Z,9.00
2024-04-24T16:52:17.707Z,7.65
2024-04-24T16:55:04.826Z,3.47
2024-04-24T16:57:51.285Z,12.18
2024-04-24T17:00:38.678Z,5.65
2024-04-24T17:03:25.626Z,4.10
2024-04-24T17:06:12.261Z,3.00
2024-04-24T17:08:59.149Z,11.30
2024-04-24T17:11:46.459Z,4.75
2024-04-24T17:14:33.533Z,2.70
2024-04-24T17:17:19.994Z,2.38
2024-04-24T17:20:09.214Z,3.80
2024-04-24T17:22:56.193Z,3.50
2024-04-24T17:25:42.547Z,10.05
2024-04-24T17:28:29.885Z,3.42
2024-04-24T17:31:19.928Z,5.47
2024-04-24T17:34:25.241Z,5.90
2024-04-24T17:37:13.089Z,6.60
2024-04-24T17:40:00.008Z,6.03
2024-04-24T17:42:47.134Z,6.07
2024-04-24T17:45:33.921Z,5.28
2024-04-24T17:48:21.587Z,4.65
2024-04-24T17:51:08.690Z,5.25
2024-04-24T17:53:55.378Z,5.82
2024-04-24T17:57:00.404Z,5.35
2024-04-24T17:59:48.999Z,7.65
2024-04-24T18:02:39.205Z,7.13
2024-04-24T18:05:52.781Z,5.32
2024-04-24T18:12:15.123Z,1.77
2024-04-24T18:15:01.616Z,1.52
2024-04-24T18:17:48.790Z,1.70
2024-04-24T18:20:35.827Z,2.15
2024-04-24T18:23:25.557Z,1.80
2024-04-24T18:26:12.544Z,1.73
2024-04-24T18:28:59.369Z,2.08
2024-04-24T18:32:13.420Z,1.20
2024-04-24T18:35:20.488Z,2.42
2024-04-24T18:38:07.414Z,1.73
2024-04-24T18:40:58.565Z,1.75
2024-04-24T18:43:45.462Z,2.47
2024-04-24T18:46:31.900Z,7.05
2024-04-24T18:49:18.477Z,3.47
2024-04-24T18:52:05.029Z,1.65
2024-04-24T18:54:51.578Z,7.40
2024-04-24T18:57:43.985Z,1.63
2024-04-24T19:00:31.172Z,4.25
2024-04-24T19:03:18.056Z,1.85
2024-04-24T19:06:05.291Z,2.30
2024-04-24T19:08:56.395Z,2.47
2024-04-24T19:11:43.116Z,1.38
2024-04-24T19:14:29.593Z,2.30
2024-04-24T19:17:15.962Z,2.65
2024-04-24T19:20:02.498Z,2.53
2024-04-24T19:22:53.258Z,1.27
2024-04-24T19:25:40.614Z,2.00
2024-04-24T19:28:27.623Z,14.32
2024-04-24T19:31:23.406Z,31.40
2024-04-24T19:34:15.144Z,4.47
2024-04-24T19:37:01.708Z,1.23
2024-04-24T19:39:49.328Z,3.15
2024-04-24T19:42:36.322Z,2.75
2024-04-24T19:45:25.038Z,2.70
2024-04-24T19:48:12.214Z,2.30
2024-04-24T19:50:58.890Z,3.38
2024-04-24T19:53:45.453Z,6.35
2024-04-24T19:56:31.840Z,3.30
2024-04-24T19:59:19.382Z,3.90
2024-04-24T20:02:06.507Z,2.70
2024-04-24T20:04:53.989Z,3.13
2024-04-24T20:07:44.046Z,5.43
2024-04-24T20:10:32.193Z,3.15
2024-04-24T20:13:20.292Z,2.22
2024-04-24T20:16:11.449Z,2.30
2024-04-24T20:19:10.617Z,1.75
2024-04-24T20:22:26.273Z,1.17
2024-04-24T20:25:14.999Z,1.10
2024-04-24T20:28:03.577Z,3.78
2024-04-24T20:31:29.878Z,1.40
2024-04-24T20:46:42.008Z,1.20
2024-04-24T20:49:42.585Z,0.93
2024-04-24T20:52:29.277Z,0.70
2024-04-24T20:55:16.531Z,1.23
2024-04-24T20:58:03.229Z,1.90
2024-04-24T21:00:49.663Z,1.10
2024-04-24T21:03:37.280Z,1.15
2024-04-24T21:06:24.318Z,1.75
2024-04-24T21:09:45.525Z,1.23
2024-04-24T21:15:37.277Z,1.75
2024-04-24T21:18:24.186Z,1.13
2024-04-24T21:21:12.726Z,3.00
2024-04-24T21:23:59.561Z,1.75
2024-04-24T21:26:49.135Z,1.60
2024-04-24T21:32:57.056Z,1.75
2024-04-24T21:35:46.782Z,1.15
2024-04-24T21:38:37.436Z,0.77
2024-04-24T21:41:25.301Z,1.45
2024-04-24T21:44:12.132Z,2.60
2024-04-24T21:46:58.959Z,2.03
2024-04-24T21:49:46.153Z,1.73
2024-04-24T21:52:37.788Z,1.30
2024-04-24T21:55:27.480Z,2.00
2024-04-24T21:58:28.710Z,2.45
2024-04-24T22:01:28.880Z,1.67
2024-04-24T22:05:24.941Z,3.38
2024-04-24T22:08:11.591Z,8.20
2024-04-24T22:10:58.819Z,7.10
2024-04-24T22:13:45.488Z,5.35
2024-04-24T22:16:32.182Z,1.63
2024-04-24T22:19:19.001Z,1.00
2024-04-24T22:22:05.901Z,3.88
2024-04-24T22:24:53.905Z,3.47
2024-04-24T22:27:41.237Z,2.33
2024-04-24T22:30:49.529Z,0.73
2024-04-24T22:33:36.827Z,3.85
2024-04-24T22:36:31.180Z,2.08
2024-04-24T22:39:23.894Z,2.40
2024-04-24T22:42:47.612Z,1.10
2024-04-24T22:45:39.460Z,0.70
2024-04-24T22:48:28.819Z,1.20
2024-04-24T22:51:15.971Z,0.98
2024-04-24T22:54:02.746Z,0.60
2024-04-24T22:56:49.528Z,1.50
2024-04-24T22:59:36.857Z,2.83
2024-04-24T23:02:23.632Z,4.68
2024-04-24T23:05:10.532Z,2.35
2024-04-24T23:07:57.078Z,0.93
2024-04-24T23:10:43.391Z,0.65
2024-04-24T23:13:31.035Z,0.50
2024-04-24T23:16:18.172Z,1.90
2024-04-24T23:19:04.823Z,1.10
2024-04-24T23:21:51.485Z,2.40
2024-04-24T23:24:38.277Z,1.98
2024-04-24T23:27:24.893Z,1.23
2024-04-24T23:30:30.000Z,0.55
2024-04-24T23:33:16.693Z,2.03
2024-04-24T23:36:06.222Z,1.13
2024-04-24T23:39:12.142Z,1.17
2024-04-24T23:41:58.974Z,0.68
2024-04-24T23:44:45.519Z,0.63
2024-04-24T23:47:31.936Z,0.60
2024-04-24T23:53:34.554Z,1.58
2024-04-24T23:56:23.247Z,0.80
2024-04-24T23:59:09.746Z,0.65
